createdAt,value
2018-10-19T00:00:18.250Z,23.70
2018-10-19T00:02:46.649Z,23.70
2018-10-19T00:05:15.128Z,23.70
2018-10-19T00:07:43.431Z,23.70
2018-10-19T00:10:12.130Z,23.70
2018-10-19T00:12:40.599Z,23.70
2018-10-19T00:15:09.462Z,23.70
2018-10-19T00:17:38.654Z,23.70
2018-10-19T00:20:08.643Z,23.70
2018-10-19T00:22:37.946Z,23.70
2018-10-19T00:25:08.248Z,23.70
2018-10-19T00:27:37.481Z,23.70
2018-10-19T00:30:07.997Z,23.70
2018-10-19T00:32:36.820Z,23.70
2018-10-19T00:35:06.243Z,23.70
2018-10-19T00:37:35.441Z,23.70
2018-10-19T00:40:04.811Z,23.70
2018-10-19T00:42:33.196Z,23.70
2018-10-19T00:45:01.718Z,23.70
2018-10-19T00:47:30.519Z,23.70
2018-10-19T00:49:59.050Z,23.70
2018-10-19T00:52:27.428Z,23.70
2018-10-19T00:54:55.816Z,23.70
2018-10-19T00:57:24.404Z,23.60
2018-10-19T00:59:53.004Z,23.60
2018-10-19T01:02:21.567Z,23.70
2018-10-19T01:04:50.026Z,23.60
2018-10-19T01:07:19.144Z,23.60
2018-10-19T01:09:47.548Z,23.60
2018-10-19T01:12:16.497Z,23.60
2018-10-19T01:14:44.872Z,23.60
2018-10-19T01:17:13.299Z,23.60
2018-10-19T01:19:41.679Z,23.60
2018-10-19T01:22:10.082Z,23.50
2018-10-19T01:24:38.544Z,23.50
2018-10-19T01:27:07.000Z,23.60
2018-10-19T01:29:35.339Z,23.50
2018-10-19T01:32:03.736Z,23.50
2018-10-19T01:34:32.345Z,23.50
2018-10-19T01:37:04.004Z,23.50
2018-10-19T01:39:32.419Z,23.50
2018-10-19T01:42:00.804Z,23.50
2018-10-19T01:44:31.478Z,23.50
2018-10-19T01:46:59.871Z,23.50
2018-10-19T01:49:28.249Z,23.50
2018-10-19T01:51:56.628Z,23.50
2018-10-19T01:54:25.018Z,23.50
2018-10-19T01:56:53.468Z,23.50
2018-10-19T01:59:21.806Z,23.50
2018-10-19T02:01:50.207Z,23.50
2018-10-19T02:04:18.604Z,23.50
2018-10-19T02:06:46.987Z,23.40
2018-10-19T02:09:15.376Z,23.40
2018-10-19T02:11:43.767Z,23.40
2018-10-19T02:14:12.191Z,23.40
2018-10-19T02:16:40.567Z,23.40
2018-10-19T02:19:08.947Z,23.40
2018-10-19T02:21:37.324Z,23.40
2018-10-19T02:24:05.807Z,23.40
2018-10-19T02:26:34.272Z,23.40
2018-10-19T02:29:02.726Z,23.40
2018-10-19T02:31:31.135Z,23.40
2018-10-19T02:33:59.864Z,23.40
2018-10-19T02:36:28.262Z,23.40
2018-10-19T02:38:57.297Z,23.40
2018-10-19T02:41:25.683Z,23.40
2018-10-19T02:43:54.063Z,23.40
2018-10-19T02:46:22.452Z,23.40
2018-10-19T02:48:50.811Z,23.40
2018-10-19T02:51:19.238Z,23.40
2018-10-19T02:53:47.671Z,23.30
2018-10-19T02:56:16.048Z,23.30
2018-10-19T02:58:44.419Z,23.30
2018-10-19T03:01:12.823Z,23.30
2018-10-19T03:03:41.226Z,23.30
2018-10-19T03:06:09.591Z,23.30
2018-10-19T03:08:38.086Z,23.30
2018-10-19T03:11:07.439Z,23.30
2018-10-19T03:13:35.903Z,23.30
2018-10-19T03:16:04.499Z,23.30
2018-10-19T03:18:32.879Z,23.30
2018-10-19T03:21:01.283Z,23.30
2018-10-19T03:23:29.638Z,23.30
2018-10-19T03:25:58.013Z,23.30
2018-10-19T03:28:26.399Z,23.30
2018-10-19T03:30:54.880Z,23.20
2018-10-19T03:33:23.304Z,23.30
2018-10-19T03:35:51.674Z,23.30
2018-10-19T03:38:20.107Z,23.20
2018-10-19T03:40:48.539Z,23.20
2018-10-19T03:43:16.938Z,23.20
2018-10-19T03:45:45.302Z,23.20
2018-10-19T03:48:13.691Z,23.20
2018-10-19T03:50:42.175Z,23.20
2018-10-19T03:53:10.600Z,23.20
2018-10-19T03:55:38.971Z,23.20
2018-10-19T03:58:07.350Z,23.20
2018-10-19T04:00:35.771Z,23.20
2018-10-19T04:03:04.166Z,23.20
2018-10-19T04:05:32.559Z,23.20
2018-10-19T04:08:01.640Z,23.20
2018-10-19T04:10:30.117Z,23.20
2018-10-19T04:12:58.494Z,23.20
2018-10-19T04:15:26.871Z,23.20
2018-10-19T04:17:55.256Z,23.20
2018-10-19T04:20:23.635Z,23.20
2018-10-19T04:23:06.015Z,23.20
2018-10-19T04:25:34.576Z,23.20
2018-10-19T04:28:03.347Z,23.20
2018-10-19T04:30:31.746Z,23.20
2018-10-19T04:33:00.543Z,23.20
2018-10-19T04:35:29.205Z,23.20
2018-10-19T04:37:57.608Z,23.10
2018-10-19T04:40:26.007Z,23.10
2018-10-19T04:42:54.383Z,23.20
2018-10-19T04:45:23.106Z,23.20
2018-10-19T04:47:51.522Z,23.20
2018-10-19T04:50:19.913Z,23.20
2018-10-19T04:52:48.337Z,23.20
2018-10-19T04:55:19.072Z,23.20
2018-10-19T04:57:47.446Z,23.20
2018-10-19T05:00:17.552Z,23.20
2018-10-19T05:02:46.048Z,23.20
2018-10-19T05:05:14.438Z,23.20
2018-10-19T05:07:42.807Z,23.20
2018-10-19T05:10:11.412Z,23.20
2018-10-19T05:12:39.908Z,23.10
2018-10-19T05:15:09.721Z,23.10
2018-10-19T05:17:38.211Z,23.10
2018-10-19T05:20:08.089Z,23.10
2018-10-19T05:22:36.716Z,23.10
2018-10-19T05:25:07.027Z,23.10
2018-10-19T05:27:35.561Z,23.10
2018-10-19T05:30:04.145Z,23.10
2018-10-19T05:32:32.591Z,23.10
2018-10-19T05:35:01.494Z,23.10
2018-10-19T05:37:31.200Z,23.10
2018-10-19T05:39:59.958Z,23.10
2018-10-19T05:42:29.295Z,23.10
2018-10-19T05:44:57.771Z,23.10
2018-10-19T05:47:26.316Z,23.10
2018-10-19T05:49:55.713Z,23.10
2018-10-19T05:52:24.141Z,23.10
2018-10-19T05:54:52.639Z,23.10
2018-10-19T05:57:21.020Z,23.10
2018-10-19T05:59:49.547Z,23.10
2018-10-19T06:02:17.951Z,23.10
2018-10-19T06:04:46.429Z,23.10
2018-10-19T06:07:14.818Z,23.10
2018-10-19T06:09:43.213Z,23.00
2018-10-19T06:12:11.615Z,23.10
2018-10-19T06:14:40.750Z,23.00
2018-10-19T06:17:09.170Z,23.10
2018-10-19T06:19:37.543Z,23.10
2018-10-19T06:22:05.927Z,23.10
2018-10-19T06:24:34.312Z,23.10
2018-10-19T06:27:02.699Z,23.10
2018-10-19T06:29:31.064Z,23.10
2018-10-19T06:31:59.549Z,23.10
2018-10-19T06:34:27.979Z,23.10
2018-10-19T06:36:56.365Z,23.10
2018-10-19T06:39:24.827Z,23.10
2018-10-19T06:41:55.001Z,23.10
2018-10-19T06:44:23.387Z,23.10
2018-10-19T06:46:51.875Z,23.10
2018-10-19T06:49:20.255Z,23.10
2018-10-19T06:51:48.632Z,23.10
2018-10-19T06:54:17.487Z,23.10
2018-10-19T06:56:46.235Z,23.10
2018-10-19T06:59:14.643Z,23.10
2018-10-19T07:01:43.085Z,23.10
2018-10-19T07:04:11.587Z,23.10
2018-10-19T07:06:43.641Z,23.00
2018-10-19T07:09:12.056Z,23.10
2018-10-19T07:11:40.424Z,23.00
2018-10-19T07:14:08.827Z,23.00
2018-10-19T07:16:37.223Z,23.00
2018-10-19T07:19:06.029Z,23.00
2018-10-19T07:21:34.424Z,23.00
2018-10-19T07:24:02.794Z,23.00
2018-10-19T07:26:31.288Z,23.00
2018-10-19T07:28:59.797Z,23.10
2018-10-19T07:31:28.173Z,23.00
2018-10-19T07:33:56.599Z,23.00
2018-10-19T07:36:25.304Z,23.00
2018-10-19T07:38:53.671Z,23.00
2018-10-19T07:41:22.063Z,23.10
2018-10-19T07:43:50.587Z,23.00
2018-10-19T07:46:19.091Z,23.00
2018-10-19T07:48:47.480Z,23.00
2018-10-19T07:51:16.086Z,23.00
2018-10-19T07:53:44.569Z,23.00
2018-10-19T07:56:13.115Z,23.00
2018-10-19T07:58:41.514Z,23.00
2018-10-19T08:01:09.940Z,23.10
2018-10-19T08:03:38.311Z,23.10
2018-10-19T08:06:06.678Z,23.10
2018-10-19T08:08:35.059Z,23.10
2018-10-19T08:11:03.692Z,23.10
2018-10-19T08:13:32.053Z,23.10
2018-10-19T08:16:00.447Z,23.10
2018-10-19T08:18:28.875Z,23.10
2018-10-19T08:20:57.310Z,23.20
2018-10-19T08:23:25.780Z,23.20
2018-10-19T08:25:54.222Z,23.20
2018-10-19T08:28:22.816Z,23.20
2018-10-19T08:30:51.295Z,23.20
2018-10-19T08:33:19.865Z,23.20
2018-10-19T08:35:48.270Z,23.20
2018-10-19T08:38:16.747Z,23.20
2018-10-19T08:40:45.148Z,23.30
2018-10-19T08:43:13.591Z,23.30
2018-10-19T08:45:41.967Z,23.30
2018-10-19T08:48:10.476Z,23.30
2018-10-19T08:50:38.907Z,23.40
2018-10-19T08:53:07.358Z,23.40
2018-10-19T08:55:35.786Z,23.40
2018-10-19T08:58:04.248Z,23.40
2018-10-19T09:00:32.631Z,23.40
2018-10-19T09:03:01.152Z,23.40
2018-10-19T09:05:29.527Z,23.40
2018-10-19T09:07:58.033Z,23.40
2018-10-19T09:10:26.567Z,23.40
2018-10-19T09:12:55.245Z,23.40
2018-10-19T09:15:23.637Z,23.50
2018-10-19T09:17:52.084Z,23.50
2018-10-19T09:20:20.501Z,23.50
2018-10-19T09:22:48.886Z,23.60
2018-10-19T09:25:17.322Z,23.60
2018-10-19T09:27:45.734Z,23.70
2018-10-19T09:30:14.127Z,23.70
2018-10-19T09:32:42.599Z,23.70
2018-10-19T09:35:11.019Z,23.80
2018-10-19T09:37:42.560Z,23.80
2018-10-19T09:40:14.025Z,23.80
2018-10-19T09:42:42.801Z,23.90
2018-10-19T09:45:11.259Z,23.90
2018-10-19T09:47:39.746Z,23.90
2018-10-19T09:50:08.116Z,23.90
2018-10-19T09:52:36.522Z,24.00
2018-10-19T09:55:05.605Z,24.00
2018-10-19T09:57:33.984Z,24.00
2018-10-19T10:00:02.576Z,24.00
2018-10-19T10:02:30.980Z,24.00
2018-10-19T10:05:01.771Z,24.00
2018-10-19T10:07:30.180Z,24.00
2018-10-19T10:09:58.554Z,24.10
2018-10-19T10:12:27.011Z,24.10
2018-10-19T10:14:55.445Z,24.10
2018-10-19T10:17:23.803Z,24.20
2018-10-19T10:19:52.179Z,24.20
2018-10-19T10:22:20.617Z,24.20
2018-10-19T10:24:49.065Z,24.20
2018-10-19T10:27:17.416Z,24.30
2018-10-19T10:29:45.805Z,24.30
2018-10-19T10:32:14.315Z,24.30
2018-10-19T10:34:42.676Z,24.40
2018-10-19T10:37:11.153Z,24.40
2018-10-19T10:39:39.492Z,24.40
2018-10-19T10:42:07.899Z,24.50
2018-10-19T10:44:36.293Z,24.50
2018-10-19T10:47:04.921Z,24.50
2018-10-19T10:49:33.287Z,24.50
2018-10-19T10:52:01.683Z,24.50
2018-10-19T10:54:30.137Z,24.50
2018-10-19T10:56:58.619Z,24.60
2018-10-19T10:59:27.132Z,24.60
2018-10-19T11:01:55.582Z,24.60
2018-10-19T11:04:23.976Z,24.60
2018-10-19T11:06:52.379Z,24.70
2018-10-19T11:09:20.770Z,24.70
2018-10-19T11:11:49.200Z,24.70
2018-10-19T11:14:17.621Z,24.80
2018-10-19T11:16:46.063Z,24.80
2018-10-19T11:19:14.521Z,24.70
2018-10-19T11:21:42.998Z,24.80
2018-10-19T11:24:11.506Z,24.80
2018-10-19T11:26:40.164Z,24.80
2018-10-19T11:29:08.577Z,24.70
2018-10-19T11:31:36.960Z,24.80
2018-10-19T11:34:05.647Z,24.80
2018-10-19T11:36:34.392Z,24.80
2018-10-19T11:39:02.862Z,24.80
2018-10-19T11:41:31.255Z,24.90
2018-10-19T11:43:59.658Z,24.90
2018-10-19T11:46:28.200Z,24.90
2018-10-19T11:48:56.698Z,24.90
2018-10-19T11:51:25.123Z,24.80
2018-10-19T11:53:53.603Z,24.90
2018-10-19T11:56:22.217Z,24.90
2018-10-19T11:58:50.615Z,24.90
2018-10-19T12:01:19.086Z,24.90
2018-10-19T12:03:47.496Z,24.80
2018-10-19T12:06:15.907Z,24.90
2018-10-19T12:08:44.424Z,24.90
2018-10-19T12:11:12.915Z,24.90
2018-10-19T12:13:41.302Z,24.90
2018-10-19T12:16:09.823Z,24.90
2018-10-19T12:18:38.354Z,24.90
2018-10-19T12:21:06.991Z,24.90
2018-10-19T12:23:35.414Z,24.90
2018-10-19T12:26:03.911Z,24.90
2018-10-19T12:28:32.418Z,24.90
2018-10-19T12:31:00.934Z,24.90
2018-10-19T12:33:29.379Z,24.90
2018-10-19T12:35:57.860Z,24.90
2018-10-19T12:38:26.276Z,24.90
2018-10-19T12:40:54.751Z,24.90
2018-10-19T12:43:23.687Z,24.90
2018-10-19T12:46:37.233Z,24.90
2018-10-19T12:49:06.077Z,24.90
2018-10-19T12:55:06.693Z,24.90
2018-10-19T12:57:35.269Z,25.00
2018-10-19T13:00:03.768Z,25.00
2018-10-19T13:02:32.247Z,25.00
2018-10-19T13:05:00.674Z,25.00
2018-10-19T13:07:29.147Z,25.00
2018-10-19T13:09:57.534Z,25.00
2018-10-19T13:12:25.940Z,25.00
2018-10-19T13:14:54.368Z,25.00
2018-10-19T13:17:22.751Z,25.00
2018-10-19T13:19:51.217Z,25.00
2018-10-19T13:22:19.657Z,25.00
2018-10-19T13:24:48.057Z,25.00
2018-10-19T13:27:16.632Z,24.90
2018-10-19T13:29:45.975Z,24.90
2018-10-19T13:32:14.918Z,24.80
2018-10-19T13:34:43.635Z,24.70
2018-10-19T13:37:12.295Z,24.70
2018-10-19T13:39:40.890Z,24.70
2018-10-19T13:42:09.367Z,24.70
2018-10-19T13:44:37.806Z,24.70
2018-10-19T13:47:06.349Z,24.70
2018-10-19T13:49:36.803Z,24.70
2018-10-19T13:52:05.853Z,24.70
2018-10-19T13:54:34.688Z,24.70
2018-10-19T13:57:06.423Z,24.70
2018-10-19T13:59:35.631Z,24.80
2018-10-19T14:02:04.612Z,24.80
2018-10-19T14:04:34.189Z,24.80
2018-10-19T14:07:03.428Z,24.80
2018-10-19T14:09:32.232Z,24.80
2018-10-19T14:12:03.267Z,24.80
2018-10-19T14:14:32.244Z,24.70
2018-10-19T14:17:01.828Z,24.80
2018-10-19T14:19:32.990Z,24.70
2018-10-19T14:22:04.259Z,24.70
2018-10-19T14:24:35.617Z,24.60
2018-10-19T14:27:06.998Z,24.60
2018-10-19T14:29:38.576Z,24.70
2018-10-19T14:32:10.253Z,24.60
2018-10-19T14:34:41.453Z,24.60
2018-10-19T14:37:12.896Z,24.60
2018-10-19T14:39:44.276Z,24.60
2018-10-19T14:42:16.006Z,24.60
2018-10-19T14:44:47.123Z,24.60
2018-10-19T14:47:18.286Z,24.60
2018-10-19T14:49:49.796Z,24.60
2018-10-19T14:52:21.255Z,24.50
2018-10-19T14:54:51.584Z,24.50
2018-10-19T14:57:22.824Z,24.40
2018-10-19T14:59:55.321Z,24.30
2018-10-19T15:02:24.859Z,24.30
2018-10-19T15:04:53.733Z,24.30
2018-10-19T15:07:22.393Z,24.30
2018-10-19T15:09:52.377Z,24.30
2018-10-19T15:12:21.340Z,24.30
2018-10-19T15:14:49.807Z,24.30
2018-10-19T15:17:19.320Z,24.30
2018-10-19T15:19:47.806Z,24.30
2018-10-19T15:22:16.297Z,24.20
2018-10-19T15:24:44.727Z,24.30
2018-10-19T15:27:13.201Z,24.20
2018-10-19T15:29:41.525Z,24.20
2018-10-19T15:32:09.910Z,24.20
2018-10-19T15:34:38.339Z,24.20
2018-10-19T15:37:06.816Z,24.20
2018-10-19T15:39:35.408Z,24.20
2018-10-19T15:42:03.799Z,24.20
2018-10-19T15:44:32.215Z,24.30
2018-10-19T15:47:02.844Z,24.20
2018-10-19T15:49:31.931Z,24.30
2018-10-19T15:52:00.521Z,24.30
2018-10-19T15:54:29.013Z,24.40
2018-10-19T15:56:57.743Z,24.40
2018-10-19T15:59:25.999Z,24.40
2018-10-19T16:01:54.708Z,24.40
2018-10-19T16:04:23.262Z,24.50
2018-10-19T16:06:51.651Z,24.40
2018-10-19T16:09:20.044Z,24.40
2018-10-19T16:11:48.604Z,24.40
2018-10-19T16:14:17.055Z,24.40
2018-10-19T16:16:45.500Z,24.30
2018-10-19T16:19:13.892Z,24.10
2018-10-19T16:21:42.355Z,23.90
2018-10-19T16:24:10.840Z,23.80
2018-10-19T16:26:39.216Z,23.90
2018-10-19T16:29:07.713Z,24.00
2018-10-19T16:31:36.174Z,24.00
2018-10-19T16:34:04.873Z,24.00
2018-10-19T16:36:33.876Z,24.00
2018-10-19T16:39:02.299Z,24.00
2018-10-19T16:41:30.687Z,24.00
2018-10-19T16:43:59.166Z,24.00
2018-10-19T16:46:27.637Z,24.00
2018-10-19T16:48:56.146Z,24.00
2018-10-19T16:51:24.523Z,24.00
2018-10-19T16:53:52.954Z,24.00
2018-10-19T16:56:21.725Z,24.00
2018-10-19T16:58:50.227Z,23.90
2018-10-19T17:01:18.661Z,23.90
2018-10-19T17:03:47.734Z,23.90
2018-10-19T17:06:16.384Z,23.90
2018-10-19T17:08:45.080Z,24.00
2018-10-19T17:11:13.504Z,24.00
2018-10-19T17:13:41.936Z,24.00
2018-10-19T17:16:10.327Z,24.00
2018-10-19T17:18:39.798Z,24.00
2018-10-19T17:21:08.244Z,24.00
2018-10-19T17:23:36.778Z,24.00
2018-10-19T17:26:06.118Z,24.00
2018-10-19T17:28:34.583Z,24.00
2018-10-19T17:31:03.313Z,24.00
2018-10-19T17:33:31.825Z,24.00
2018-10-19T17:36:00.734Z,24.00
2018-10-19T17:38:29.133Z,24.00
2018-10-19T17:40:57.533Z,24.00
2018-10-19T17:43:26.036Z,24.00
2018-10-19T17:45:54.349Z,23.90
2018-10-19T17:48:22.787Z,23.90
2018-10-19T17:50:51.247Z,23.90
2018-10-19T17:53:19.732Z,23.80
2018-10-19T17:55:50.079Z,23.80
2018-10-19T17:58:19.357Z,23.80
2018-10-19T18:00:47.784Z,23.80
2018-10-19T18:03:16.296Z,23.80
2018-10-19T18:05:45.033Z,23.80
2018-10-19T18:08:13.476Z,23.80
2018-10-19T18:10:42.008Z,23.80
2018-10-19T18:13:13.461Z,23.80
2018-10-19T18:15:44.528Z,23.80
2018-10-19T18:18:16.056Z,23.80
2018-10-19T18:20:47.439Z,23.80
2018-10-19T18:23:19.067Z,23.70
2018-10-19T18:25:50.440Z,23.70
2018-10-19T18:28:21.611Z,23.70
2018-10-19T18:30:53.281Z,23.70
2018-10-19T18:33:25.017Z,23.70
2018-10-19T18:35:56.544Z,23.70
2018-10-19T18:38:28.098Z,23.70
2018-10-19T18:41:00.043Z,23.70
2018-10-19T18:43:31.300Z,23.70
2018-10-19T18:46:02.746Z,23.70
2018-10-19T18:48:34.054Z,23.70
2018-10-19T18:51:04.849Z,23.70
2018-10-19T18:53:36.576Z,23.70
2018-10-19T18:56:08.008Z,23.70
2018-10-19T18:58:39.449Z,23.70
2018-10-19T19:01:10.850Z,23.70
2018-10-19T19:03:42.252Z,23.60
2018-10-19T19:06:13.853Z,23.70
2018-10-19T19:08:45.129Z,23.70
2018-10-19T19:11:16.236Z,23.70
2018-10-19T19:13:48.673Z,23.70
2018-10-19T19:16:24.549Z,23.70
2018-10-19T19:18:55.882Z,23.70
2018-10-19T19:21:27.564Z,23.70
2018-10-19T19:24:03.592Z,23.60
2018-10-19T19:26:34.313Z,23.70
2018-10-19T19:29:05.914Z,23.70
2018-10-19T19:31:36.933Z,23.70
2018-10-19T19:34:14.060Z,23.70
2018-10-19T19:36:45.185Z,23.60
2018-10-19T19:39:16.032Z,23.60
2018-10-19T19:41:52.079Z,23.70
2018-10-19T19:44:22.747Z,23.70
2018-10-19T19:46:53.734Z,23.60
2018-10-19T19:49:29.952Z,23.60
2018-10-19T19:52:01.505Z,23.60
2018-10-19T19:54:31.932Z,23.60
2018-10-19T19:57:03.402Z,23.60
2018-10-19T19:59:35.112Z,23.60
2018-10-19T20:02:06.482Z,23.60
2018-10-19T20:04:37.829Z,23.60
2018-10-19T20:07:09.782Z,23.60
2018-10-19T20:09:40.200Z,23.60
2018-10-19T20:12:09.978Z,23.60
2018-10-19T20:14:40.485Z,23.50
2018-10-19T20:17:14.235Z,23.50
2018-10-19T20:19:45.060Z,23.50
2018-10-19T20:22:16.302Z,23.50
2018-10-19T20:24:47.737Z,23.50
2018-10-19T20:27:19.204Z,23.50
2018-10-19T20:29:50.802Z,23.50
2018-10-19T20:32:22.556Z,23.50
2018-10-19T20:34:54.291Z,23.50
2018-10-19T20:37:25.912Z,23.40
2018-10-19T20:39:57.727Z,23.50
2018-10-19T20:42:29.245Z,23.50
2018-10-19T20:45:00.665Z,23.50
2018-10-19T20:47:31.921Z,23.50
2018-10-19T20:50:03.202Z,23.40
2018-10-19T20:52:34.923Z,23.40
2018-10-19T20:55:06.890Z,23.40
2018-10-19T20:57:38.687Z,23.40
2018-10-19T21:00:10.662Z,23.40
2018-10-19T21:02:42.270Z,23.40
2018-10-19T21:05:13.959Z,23.40
2018-10-19T21:07:45.416Z,23.40
2018-10-19T21:10:17.049Z,23.40
2018-10-19T21:12:48.758Z,23.40
2018-10-19T21:15:20.642Z,23.40
2018-10-19T21:17:52.154Z,23.40
2018-10-19T21:20:23.759Z,23.30
2018-10-19T21:22:57.597Z,23.40
2018-10-19T21:25:30.967Z,23.30
2018-10-19T21:28:03.444Z,23.30
2018-10-19T21:30:36.482Z,23.30
2018-10-19T21:33:08.925Z,23.30
2018-10-19T21:35:41.382Z,23.30
2018-10-19T21:38:14.370Z,23.30
2018-10-19T21:40:45.158Z,23.30
2018-10-19T21:43:18.028Z,23.30
2018-10-19T21:45:49.439Z,23.30
2018-10-19T21:48:20.848Z,23.40
2018-10-19T21:50:52.319Z,23.40
2018-10-19T21:53:21.863Z,23.30
2018-10-19T21:55:51.851Z,23.40
2018-10-19T21:58:22.184Z,23.30
2018-10-19T22:00:52.010Z,23.30
2018-10-19T22:03:21.952Z,23.30
2018-10-19T22:05:52.035Z,23.30
2018-10-19T22:08:23.842Z,23.30
2018-10-19T22:10:54.983Z,23.30
2018-10-19T22:13:24.947Z,23.30
2018-10-19T22:15:54.529Z,23.30
2018-10-19T22:18:23.860Z,23.30
2018-10-19T22:20:55.633Z,23.30
2018-10-19T22:23:27.958Z,23.30
2018-10-19T22:25:59.239Z,23.30
2018-10-19T22:28:30.575Z,23.40
2018-10-19T22:31:02.244Z,23.30
2018-10-19T22:33:34.241Z,23.30
2018-10-19T22:36:05.775Z,23.30
2018-10-19T22:38:37.232Z,23.30
2018-10-19T22:41:08.741Z,23.40
2018-10-19T22:43:39.984Z,23.40
2018-10-19T22:46:11.595Z,23.40
2018-10-19T22:48:43.130Z,23.30
2018-10-19T22:51:14.495Z,23.30
2018-10-19T22:53:46.095Z,23.30
2018-10-19T22:56:17.609Z,23.40
2018-10-19T22:58:49.026Z,23.40
2018-10-19T23:01:20.420Z,23.30
2018-10-19T23:03:51.885Z,23.30
2018-10-19T23:06:23.301Z,23.40
2018-10-19T23:08:54.783Z,23.30
2018-10-19T23:11:26.170Z,23.40
2018-10-19T23:13:57.580Z,23.30
2018-10-19T23:16:29.154Z,23.30
2018-10-19T23:19:00.466Z,23.30
2018-10-19T23:21:31.747Z,23.40
2018-10-19T23:24:03.356Z,23.30
2018-10-19T23:26:34.394Z,23.30
2018-10-19T23:29:06.427Z,23.40
2018-10-19T23:31:37.990Z,23.30
2018-10-19T23:34:09.311Z,23.30
2018-10-19T23:36:40.734Z,23.30
2018-10-19T23:39:13.231Z,23.40
2018-10-19T23:41:44.712Z,23.30
2018-10-19T23:44:16.194Z,23.40
2018-10-19T23:46:47.524Z,23.30
2018-10-19T23:49:19.140Z,23.30
2018-10-19T23:51:50.403Z,23.30
2018-10-19T23:54:21.932Z,23.30
2018-10-19T23:56:53.496Z,23.30
2018-10-19T23:59:25.029Z,23.30
